Terminal Aerodrome Forecast
Issued by NWS El Paso, TX

Home | Current Version | Previous Version | Text Only | Print | Product List | Glossary On
Versions: 1 2 3 4 5 6 7 8 9 10 11 12 13 14 15 16 17 18 19
000
FTUS44 KEPZ 212000 AAA
TAFELP
TAF AMD
KELP 212016Z 2120/2218 10008KT P6SM SCT040 BKN080 BKN200
     FM212300 12007KT P6SM VCTS SCT040CB BKN080
     FM220600 07007KT P6SM VCTS FEW010 BKN028CB OVC060
     FM221700 09008KT P6SM VCTS SCT030CB SCT070 BKN200=

USA.gov is the U.S. government's official web portal to all federal, state and local government web resources and services.